Manila Express — VRCX7 — position and weather

sailwx.info

Track history (hours):
 
Tides and Currents Weather Stations Pressure Air Temp Water Temp Dewpoint Dewpoint Depression Visibility Wind Speed Wind Dir Waves Ship Positions

Manila Express

Last reported at 2017-Jan-23 08:33 UTC. Time now 2017-Jan-23 08:37 UTC.
Position N 49°08' W 123°15'.

Length 260 m; draft 9.6 m.

Type: Ship (hazmat cat A). MMSI: 477830800.

Date/timePositionNaut miles runAvg speedWind from/ knotsBaromVisibWave heightAir tempDewpointWater temp
2017-Jan-23 08:33N 49°08' W 123°15'1111.2
2017-Jan-23 07:33N 49°09' W 122°58'3 2.7
2017-Jan-23 06:33N 49°11' W 122°55'0 0.0
2017-Jan-23 05:33N 49°11' W 122°55'0 0.0
2017-Jan-23 04:33N 49°11' W 122°55'0 0.0
2017-Jan-23 03:33N 49°11' W 122°55'0 0.0
2017-Jan-23 02:33N 49°11' W 122°55'0 0.0
2017-Jan-23 01:33N 49°11' W 122°55'0 0.0
2017-Jan-23 00:33N 49°11' W 122°55'0 0.0
2017-Jan-22 23:33N 49°11' W 122°55'0 0.0
2017-Jan-22 22:33N 49°11' W 122°55'0 0.0
2017-Jan-22 21:33N 49°11' W 122°55'0 0.0
2017-Jan-22 20:33N 49°11' W 122°55'0 0.0
2017-Jan-22 19:33N 49°11' W 122°55'0 0.0
2017-Jan-22 18:33N 49°11' W 122°55'0 0.0
2017-Jan-22 17:33N 49°11' W 122°55'0 0.0
2017-Jan-22 16:33N 49°11' W 122°55'0 0.0
2017-Jan-22 15:33N 49°11' W 122°55'0 0.0
2017-Jan-22 14:33N 49°11' W 122°55'0 0.0
2017-Jan-22 13:33N 49°11' W 122°55'0 0.0
2017-Jan-22 12:33N 49°11' W 122°55'0 0.0
2017-Jan-22 11:33N 49°11' W 122°55'0 0.0
2017-Jan-22 10:33N 49°11' W 122°55'0 0.0
2017-Jan-22 09:33N 49°11' W 122°55'0 0.0
2017-Jan-22 08:33N 49°11' W 122°55'0 0.0
2017-Jan-22 07:33N 49°11' W 122°55'0 0.0
2017-Jan-22 06:33N 49°11' W 122°55'0 0.0
2017-Jan-22 05:33N 49°11' W 122°55'0 0.0
2017-Jan-22 04:33N 49°11' W 122°55'0 0.0
2017-Jan-22 03:33N 49°11' W 122°55'0 0.0
2017-Jan-22 02:33N 49°11' W 122°55'0 0.0
2017-Jan-22 01:33N 49°11' W 122°55'0 0.0
2017-Jan-22 00:33N 49°11' W 122°55'0 0.0
2017-Jan-21 23:33N 49°11' W 122°55'0 0.0
2017-Jan-21 22:33N 49°11' W 122°55'0 0.0
2017-Jan-21 21:33N 49°11' W 122°55'0 0.0
2017-Jan-21 20:33N 49°11' W 122°55'0 0.0
2017-Jan-21 19:33N 49°11' W 122°55'0 0.0
2017-Jan-21 18:33N 49°11' W 122°55'0 0.0
2017-Jan-21 17:33N 49°11' W 122°55'0 0.0
2017-Jan-21 16:33N 49°11' W 122°55'0 0.0
2017-Jan-21 15:33N 49°11' W 122°55'0 0.0
2017-Jan-21 14:33N 49°11' W 122°55'0 0.0
2017-Jan-21 13:33N 49°11' W 122°55'0 0.0
2017-Jan-21 12:33N 49°11' W 122°55'0 0.0
2017-Jan-21 11:33N 49°11' W 122°55'0 0.0
2017-Jan-21 10:33N 49°11' W 122°55'0 0.0
2017-Jan-21 09:33N 49°11' W 122°55'0 0.0
2017-Jan-21 08:33N 49°11' W 122°55'0 0.0
2017-Jan-21 07:33N 49°11' W 122°55'7 6.8
2017-Jan-21 06:33N 49°08' W 123°04'1111.0
2017-Jan-21 05:33N 49°06' W 123°21'1515.4
2017-Jan-21 04:34N 48°54' W 123°06'1413.6
2017-Jan-21 03:33N 48°42' W 123°14'1616.2
2017-Jan-21 02:33N 48°26' W 123°10'1211.8
2017-Jan-21 01:33N 48°19' W 123°25'6 6.3
2017-Jan-21 00:33N 48°13' W 123°26'8 8.1
2017-Jan-20 23:33N 48°11' W 123°14'1817.1
2017-Jan-20 22:32N 48°12' W 122°48'2020.5
2017-Jan-20 21:34N 47°56' W 122°30'1817.8
2017-Jan-20 20:34N 47°38' W 122°26'5 4.6
2017-Jan-20 19:33N 47°35' W 122°21'0 0.0
2017-Jan-20 18:33N 47°35' W 122°21'0 0.0
2017-Jan-20 17:33N 47°35' W 122°21'0 0.0
2017-Jan-20 16:33N 47°35' W 122°21'0 0.0
2017-Jan-20 15:33N 47°35' W 122°21'0 0.0
2017-Jan-20 14:33N 47°35' W 122°21'0 0.0
2017-Jan-20 13:33N 47°35' W 122°21'0 0.0
2017-Jan-20 12:33N 47°35' W 122°21'0 0.0
2017-Jan-20 11:33N 47°35' W 122°21'0 0.0
2017-Jan-20 10:33N 47°35' W 122°21'0 0.0
2017-Jan-20 09:33N 47°35' W 122°21'0 0.0
2017-Jan-20 08:33N 47°35' W 122°21'0 0.0
2017-Jan-20 07:33N 47°35' W 122°21'0 0.0
2017-Jan-20 06:33N 47°35' W 122°21'0 0.0
2017-Jan-20 05:33N 47°35' W 122°21'0 0.0
2017-Jan-20 04:33N 47°35' W 122°21'0 0.0
2017-Jan-20 03:34N 47°35' W 122°21'0 0.0
2017-Jan-20 02:33N 47°35' W 122°21'0 0.0
2017-Jan-20 01:33N 47°35' W 122°21'0 0.0
2017-Jan-20 00:33N 47°35' W 122°21'0 0.0
2017-Jan-19 23:33N 47°35' W 122°21'0 0.0
2017-Jan-19 22:33N 47°35' W 122°21'0 0.0
2017-Jan-19 21:33N 47°35' W 122°21'0 0.0
2017-Jan-19 20:33N 47°35' W 122°21'0 0.0
2017-Jan-19 19:33N 47°35' W 122°21'0 0.0
2017-Jan-19 18:33N 47°35' W 122°21'0 0.0
2017-Jan-19 17:33N 47°35' W 122°21'0 0.0
2017-Jan-19 16:33N 47°35' W 122°21'0 0.0
2017-Jan-19 15:33N 47°35' W 122°21'0 0.0
2017-Jan-19 14:33N 47°35' W 122°21'0 0.0
2017-Jan-19 13:33N 47°35' W 122°21'0 0.0
2017-Jan-19 12:33N 47°35' W 122°21'0 0.0
2017-Jan-19 11:33N 47°35' W 122°21'0 0.0
2017-Jan-19 10:33N 47°35' W 122°21'0 0.0
2017-Jan-19 09:33N 47°35' W 122°21'0 0.0
2017-Jan-19 08:32N 47°35' W 122°21'0 0.0
2017-Jan-19 07:33N 47°35' W 122°21'0 0.0
2017-Jan-19 06:33N 47°35' W 122°21'0 0.0
2017-Jan-19 05:32N 47°35' W 122°21'0 0.0
2017-Jan-19 04:33N 47°35' W 122°21'0 0.0
2017-Jan-19 03:32N 47°35' W 122°21'0 0.0
2017-Jan-19 02:32N 47°35' W 122°21'0 0.0
2017-Jan-19 01:32N 47°35' W 122°21'0 0.0
2017-Jan-19 00:32N 47°35' W 122°21'0 0.1
2017-Jan-18 23:33N 47°35' W 122°21'6 6.0
2017-Jan-18 22:33N 47°39' W 122°28'1716.7
2017-Jan-18 21:33N 47°56' W 122°30'1615.5
2017-Jan-18 20:32N 48°09' W 122°44'1616.8
2017-Jan-18 19:33N 48°12' W 123°08'1312.9
2017-Jan-18 18:33N 48°11' W 123°27'1010.1
2017-Jan-18 17:33N 48°13' W 123°42'1110.6
2017-Jan-18 16:33N 48°14' W 123°58'1110.5
2017-Jan-18 15:33N 48°19' W 124°12'1110.8
2017-Jan-18 14:33N 48°23' W 124°27'1111.5
2017-Jan-18 13:33N 48°29' W 124°42'9 9.3
2017-Jan-18 12:33N 48°29' W 124°56'1212.1
2017-Jan-18 11:33N 48°18' W 125°05'1413.6
2017-Jan-18 10:33N 48°05' W 125°12'44116.3
2017-Jan-17 07:25N 40°45' W 125°35'1416.3
2017-Jan-17 06:33N 40°31' W 125°31'1616.2
2017-Jan-17 05:33N 40°15' W 125°26'2015.5
2017-Jan-17 04:18N 39°56' W 125°30'1216.2
2017-Jan-17 03:33N 39°44' W 125°35'1616.2
2017-Jan-17 02:34N 39°29' W 125°42'1212.1
2017-Jan-17 01:32N 39°17' W 125°42'7712.2
2017-Jan-16 19:15N 38°43' W 124°14'913.5
2017-Jan-16 18:33N 38°37' W 124°05'1413.6
2017-Jan-16 17:33N 38°29' W 123°51'1413.8
2017-Jan-16 16:33N 38°20' W 123°38'1413.7
2017-Jan-16 15:33N 38°12' W 123°24'1413.6
2017-Jan-16 14:33N 38°02' W 123°12'1313.3
2017-Jan-16 13:33N 37°54' W 122°58'1514.6
2017-Jan-16 12:33N 37°47' W 122°42'1211.5
2017-Jan-16 11:34N 37°49' W 122°28'8 8.5
2017-Jan-16 10:34N 37°48' W 122°18'1 0.8
2017-Jan-16 09:34N 37°48' W 122°19'0 0.0
2017-Jan-16 08:34N 37°48' W 122°19'0 0.0
2017-Jan-16 07:34N 37°48' W 122°19'0 0.0
2017-Jan-16 06:34N 37°48' W 122°19'0 0.0
2017-Jan-16 05:34N 37°48' W 122°19'0 0.0
2017-Jan-16 04:34N 37°48' W 122°19'0 0.0
2017-Jan-16 03:33N 37°48' W 122°19'0 0.0
2017-Jan-16 02:33N 37°48' W 122°19'0 0.0
2017-Jan-16 01:33N 37°48' W 122°19'0 0.0
2017-Jan-16 00:33N 37°48' W 122°19'0 0.0
2017-Jan-15 23:33N 37°48' W 122°19'0 0.0
2017-Jan-15 22:33N 37°48' W 122°19'0 0.0
2017-Jan-15 21:33N 37°48' W 122°19'0 0.0
2017-Jan-15 20:33N 37°48' W 122°19'0 0.0
2017-Jan-15 19:33N 37°48' W 122°19'0 0.0
2017-Jan-15 18:33N 37°48' W 122°19'0 0.5
2017-Jan-15 17:33N 37°48' W 122°20'3 3.5
2017-Jan-15 16:34N 37°49' W 122°23'0 0.3
2017-Jan-15 15:34N 37°50' W 122°24'0 0.0
2017-Jan-15 14:33N 37°50' W 122°24'0 0.0
2017-Jan-15 13:33N 37°50' W 122°24'2 2.1
2017-Jan-15 12:34N 37°49' W 122°26'1312.6
2017-Jan-15 11:33N 37°45' W 122°41'1111.1
2017-Jan-15 10:34N 37°34' W 122°40'1816.0
2017-Jan-15 09:26N 37°16' W 122°40'1718.7
2017-Jan-15 08:32N 36°59' W 122°36'1919.3
2017-Jan-15 07:33N 36°41' W 122°28'2020.0
2017-Jan-15 06:33N 36°23' W 122°18'2019.8
2017-Jan-15 05:33N 36°04' W 122°10'1919.3
2017-Jan-15 04:33N 35°47' W 121°60'1919.3
2017-Jan-15 03:33N 35°31' W 121°46'1919.2
2017-Jan-15 02:33N 35°15' W 121°33'6419.1
2017-Jan-14 23:11N 34°25' W 120°44'9819.2
2017-Jan-14 18:06N 33°53' W 118°53'1018.1
2017-Jan-14 17:33N 33°49' W 118°42'1313.0
2017-Jan-14 16:34N 33°42' W 118°29'1111.3
2017-Jan-14 15:34N 33°38' W 118°16'6 4.2
2017-Jan-14 14:14N 33°44' W 118°15'0 0.0
2017-Jan-14 13:32N 33°44' W 118°15'0 0.0
2017-Jan-14 12:32N 33°44' W 118°15'0 0.0
2017-Jan-14 11:32N 33°44' W 118°15'7 0.6
2017-Jan-13 23:33N 33°37' W 118°11'1110.8
2017-Jan-13 22:33N 33°27' W 118°06'1010.1
2017-Jan-13 21:33N 33°18' W 118°02'10 9.7
2017-Jan-13 20:33N 33°08' W 117°58'7 7.3
2017-Jan-13 19:33N 33°02' W 117°55'4 3.7
2017-Jan-13 18:33N 32°58' W 117°54'1313.2
2017-Jan-13 17:33N 32°46' W 117°49'1313.3
2017-Jan-13 16:33N 32°33' W 117°44'  
Track history (hours):
 
Tides and Currents Weather Stations Pressure Air Temp Water Temp Dewpoint Dewpoint Depression Visibility Wind Speed Wind Dir Waves Ship Positions

Manila Express

Last reported at 2017-Jan-23 08:33 UTC. Time now 2017-Jan-23 08:37 UTC.
Position N 49°08' W 123°15'.

Length 260 m; draft 9.6 m.

Type: Ship (hazmat cat A). MMSI: 477830800.

Date/timePositionNaut miles runAvg speedWind from/ knotsBaromVisibWave heightAir tempDewpointWater temp
2017-Jan-23 08:33N 49°08' W 123°15'1111.2
2017-Jan-23 07:33N 49°09' W 122°58'3 2.7
2017-Jan-23 06:33N 49°11' W 122°55'0 0.0
2017-Jan-23 05:33N 49°11' W 122°55'0 0.0
2017-Jan-23 04:33N 49°11' W 122°55'0 0.0
2017-Jan-23 03:33N 49°11' W 122°55'0 0.0
2017-Jan-23 02:33N 49°11' W 122°55'0 0.0
2017-Jan-23 01:33N 49°11' W 122°55'0 0.0
2017-Jan-23 00:33N 49°11' W 122°55'0 0.0
2017-Jan-22 23:33N 49°11' W 122°55'0 0.0
2017-Jan-22 22:33N 49°11' W 122°55'0 0.0
2017-Jan-22 21:33N 49°11' W 122°55'0 0.0
2017-Jan-22 20:33N 49°11' W 122°55'0 0.0
2017-Jan-22 19:33N 49°11' W 122°55'0 0.0
2017-Jan-22 18:33N 49°11' W 122°55'0 0.0
2017-Jan-22 17:33N 49°11' W 122°55'0 0.0
2017-Jan-22 16:33N 49°11' W 122°55'0 0.0
2017-Jan-22 15:33N 49°11' W 122°55'0 0.0
2017-Jan-22 14:33N 49°11' W 122°55'0 0.0
2017-Jan-22 13:33N 49°11' W 122°55'0 0.0
2017-Jan-22 12:33N 49°11' W 122°55'0 0.0
2017-Jan-22 11:33N 49°11' W 122°55'0 0.0
2017-Jan-22 10:33N 49°11' W 122°55'0 0.0
2017-Jan-22 09:33N 49°11' W 122°55'0 0.0
2017-Jan-22 08:33N 49°11' W 122°55'0 0.0
2017-Jan-22 07:33N 49°11' W 122°55'0 0.0
2017-Jan-22 06:33N 49°11' W 122°55'0 0.0
2017-Jan-22 05:33N 49°11' W 122°55'0 0.0
2017-Jan-22 04:33N 49°11' W 122°55'0 0.0
2017-Jan-22 03:33N 49°11' W 122°55'0 0.0
2017-Jan-22 02:33N 49°11' W 122°55'0 0.0
2017-Jan-22 01:33N 49°11' W 122°55'0 0.0
2017-Jan-22 00:33N 49°11' W 122°55'0 0.0
2017-Jan-21 23:33N 49°11' W 122°55'0 0.0
2017-Jan-21 22:33N 49°11' W 122°55'0 0.0
2017-Jan-21 21:33N 49°11' W 122°55'0 0.0
2017-Jan-21 20:33N 49°11' W 122°55'0 0.0
2017-Jan-21 19:33N 49°11' W 122°55'0 0.0
2017-Jan-21 18:33N 49°11' W 122°55'0 0.0
2017-Jan-21 17:33N 49°11' W 122°55'0 0.0
2017-Jan-21 16:33N 49°11' W 122°55'0 0.0
2017-Jan-21 15:33N 49°11' W 122°55'0 0.0
2017-Jan-21 14:33N 49°11' W 122°55'0 0.0
2017-Jan-21 13:33N 49°11' W 122°55'0 0.0
2017-Jan-21 12:33N 49°11' W 122°55'0 0.0
2017-Jan-21 11:33N 49°11' W 122°55'0 0.0
2017-Jan-21 10:33N 49°11' W 122°55'0 0.0
2017-Jan-21 09:33N 49°11' W 122°55'0 0.0
2017-Jan-21 08:33N 49°11' W 122°55'0 0.0
2017-Jan-21 07:33N 49°11' W 122°55'7 6.8
2017-Jan-21 06:33N 49°08' W 123°04'1111.0
2017-Jan-21 05:33N 49°06' W 123°21'1515.4
2017-Jan-21 04:34N 48°54' W 123°06'1413.6
2017-Jan-21 03:33N 48°42' W 123°14'1616.2
2017-Jan-21 02:33N 48°26' W 123°10'1211.8
2017-Jan-21 01:33N 48°19' W 123°25'6 6.3
2017-Jan-21 00:33N 48°13' W 123°26'8 8.1
2017-Jan-20 23:33N 48°11' W 123°14'1817.1
2017-Jan-20 22:32N 48°12' W 122°48'2020.5
2017-Jan-20 21:34N 47°56' W 122°30'1817.8
2017-Jan-20 20:34N 47°38' W 122°26'5 4.6
2017-Jan-20 19:33N 47°35' W 122°21'0 0.0
2017-Jan-20 18:33N 47°35' W 122°21'0 0.0
2017-Jan-20 17:33N 47°35' W 122°21'0 0.0
2017-Jan-20 16:33N 47°35' W 122°21'0 0.0
2017-Jan-20 15:33N 47°35' W 122°21'0 0.0
2017-Jan-20 14:33N 47°35' W 122°21'0 0.0
2017-Jan-20 13:33N 47°35' W 122°21'0 0.0
2017-Jan-20 12:33N 47°35' W 122°21'0 0.0
2017-Jan-20 11:33N 47°35' W 122°21'0 0.0
2017-Jan-20 10:33N 47°35' W 122°21'0 0.0
2017-Jan-20 09:33N 47°35' W 122°21'0 0.0
2017-Jan-20 08:33N 47°35' W 122°21'0 0.0
2017-Jan-20 07:33N 47°35' W 122°21'0 0.0
2017-Jan-20 06:33N 47°35' W 122°21'0 0.0
2017-Jan-20 05:33N 47°35' W 122°21'0 0.0
2017-Jan-20 04:33N 47°35' W 122°21'0 0.0
2017-Jan-20 03:34N 47°35' W 122°21'0 0.0
2017-Jan-20 02:33N 47°35' W 122°21'0 0.0
2017-Jan-20 01:33N 47°35' W 122°21'0 0.0
2017-Jan-20 00:33N 47°35' W 122°21'0 0.0
2017-Jan-19 23:33N 47°35' W 122°21'0 0.0
2017-Jan-19 22:33N 47°35' W 122°21'0 0.0
2017-Jan-19 21:33N 47°35' W 122°21'0 0.0
2017-Jan-19 20:33N 47°35' W 122°21'0 0.0
2017-Jan-19 19:33N 47°35' W 122°21'0 0.0
2017-Jan-19 18:33N 47°35' W 122°21'0 0.0
2017-Jan-19 17:33N 47°35' W 122°21'0 0.0
2017-Jan-19 16:33N 47°35' W 122°21'0 0.0
2017-Jan-19 15:33N 47°35' W 122°21'0 0.0
2017-Jan-19 14:33N 47°35' W 122°21'0 0.0
2017-Jan-19 13:33N 47°35' W 122°21'0 0.0
2017-Jan-19 12:33N 47°35' W 122°21'0 0.0
2017-Jan-19 11:33N 47°35' W 122°21'0 0.0
2017-Jan-19 10:33N 47°35' W 122°21'0 0.0
2017-Jan-19 09:33N 47°35' W 122°21'0 0.0
2017-Jan-19 08:32N 47°35' W 122°21'0 0.0
2017-Jan-19 07:33N 47°35' W 122°21'0 0.0
2017-Jan-19 06:33N 47°35' W 122°21'0 0.0
2017-Jan-19 05:32N 47°35' W 122°21'0 0.0
2017-Jan-19 04:33N 47°35' W 122°21'0 0.0
2017-Jan-19 03:32N 47°35' W 122°21'0 0.0
2017-Jan-19 02:32N 47°35' W 122°21'0 0.0
2017-Jan-19 01:32N 47°35' W 122°21'0 0.0
2017-Jan-19 00:32N 47°35' W 122°21'0 0.1
2017-Jan-18 23:33N 47°35' W 122°21'6 6.0
2017-Jan-18 22:33N 47°39' W 122°28'1716.7
2017-Jan-18 21:33N 47°56' W 122°30'1615.5
2017-Jan-18 20:32N 48°09' W 122°44'1616.8
2017-Jan-18 19:33N 48°12' W 123°08'1312.9
2017-Jan-18 18:33N 48°11' W 123°27'1010.1
2017-Jan-18 17:33N 48°13' W 123°42'1110.6
2017-Jan-18 16:33N 48°14' W 123°58'1110.5
2017-Jan-18 15:33N 48°19' W 124°12'1110.8
2017-Jan-18 14:33N 48°23' W 124°27'1111.5
2017-Jan-18 13:33N 48°29' W 124°42'9 9.3
2017-Jan-18 12:33N 48°29' W 124°56'1212.1
2017-Jan-18 11:33N 48°18' W 125°05'1413.6
2017-Jan-18 10:33N 48°05' W 125°12'44116.3
2017-Jan-17 07:25N 40°45' W 125°35'1416.3
2017-Jan-17 06:33N 40°31' W 125°31'1616.2
2017-Jan-17 05:33N 40°15' W 125°26'2015.5
2017-Jan-17 04:18N 39°56' W 125°30'1216.2
2017-Jan-17 03:33N 39°44' W 125°35'1616.2
2017-Jan-17 02:34N 39°29' W 125°42'1212.1
2017-Jan-17 01:32N 39°17' W 125°42'7712.2
2017-Jan-16 19:15N 38°43' W 124°14'913.5
2017-Jan-16 18:33N 38°37' W 124°05'1413.6
2017-Jan-16 17:33N 38°29' W 123°51'1413.8
2017-Jan-16 16:33N 38°20' W 123°38'1413.7
2017-Jan-16 15:33N 38°12' W 123°24'1413.6
2017-Jan-16 14:33N 38°02' W 123°12'1313.3
2017-Jan-16 13:33N 37°54' W 122°58'1514.6
2017-Jan-16 12:33N 37°47' W 122°42'1211.5
2017-Jan-16 11:34N 37°49' W 122°28'8 8.5
2017-Jan-16 10:34N 37°48' W 122°18'1 0.8
2017-Jan-16 09:34N 37°48' W 122°19'0 0.0
2017-Jan-16 08:34N 37°48' W 122°19'0 0.0
2017-Jan-16 07:34N 37°48' W 122°19'0 0.0
2017-Jan-16 06:34N 37°48' W 122°19'0 0.0
2017-Jan-16 05:34N 37°48' W 122°19'0 0.0
2017-Jan-16 04:34N 37°48' W 122°19'0 0.0
2017-Jan-16 03:33N 37°48' W 122°19'0 0.0
2017-Jan-16 02:33N 37°48' W 122°19'0 0.0
2017-Jan-16 01:33N 37°48' W 122°19'0 0.0
2017-Jan-16 00:33N 37°48' W 122°19'0 0.0
2017-Jan-15 23:33N 37°48' W 122°19'0 0.0
2017-Jan-15 22:33N 37°48' W 122°19'0 0.0
2017-Jan-15 21:33N 37°48' W 122°19'0 0.0
2017-Jan-15 20:33N 37°48' W 122°19'0 0.0
2017-Jan-15 19:33N 37°48' W 122°19'0 0.0
2017-Jan-15 18:33N 37°48' W 122°19'0 0.5
2017-Jan-15 17:33N 37°48' W 122°20'3 3.5
2017-Jan-15 16:34N 37°49' W 122°23'0 0.3
2017-Jan-15 15:34N 37°50' W 122°24'0 0.0
2017-Jan-15 14:33N 37°50' W 122°24'0 0.0
2017-Jan-15 13:33N 37°50' W 122°24'2 2.1
2017-Jan-15 12:34N 37°49' W 122°26'1312.6
2017-Jan-15 11:33N 37°45' W 122°41'1111.1
2017-Jan-15 10:34N 37°34' W 122°40'1816.0
2017-Jan-15 09:26N 37°16' W 122°40'1718.7
2017-Jan-15 08:32N 36°59' W 122°36'1919.3
2017-Jan-15 07:33N 36°41' W 122°28'2020.0
2017-Jan-15 06:33N 36°23' W 122°18'2019.8
2017-Jan-15 05:33N 36°04' W 122°10'1919.3
2017-Jan-15 04:33N 35°47' W 121°60'1919.3
2017-Jan-15 03:33N 35°31' W 121°46'1919.2
2017-Jan-15 02:33N 35°15' W 121°33'6419.1
2017-Jan-14 23:11N 34°25' W 120°44'9819.2
2017-Jan-14 18:06N 33°53' W 118°53'1018.1
2017-Jan-14 17:33N 33°49' W 118°42'1313.0
2017-Jan-14 16:34N 33°42' W 118°29'1111.3
2017-Jan-14 15:34N 33°38' W 118°16'6 4.2
2017-Jan-14 14:14N 33°44' W 118°15'0 0.0
2017-Jan-14 13:32N 33°44' W 118°15'0 0.0
2017-Jan-14 12:32N 33°44' W 118°15'0 0.0
2017-Jan-14 11:32N 33°44' W 118°15'7 0.6
2017-Jan-13 23:33N 33°37' W 118°11'1110.8
2017-Jan-13 22:33N 33°27' W 118°06'1010.1
2017-Jan-13 21:33N 33°18' W 118°02'10 9.7
2017-Jan-13 20:33N 33°08' W 117°58'7 7.3
2017-Jan-13 19:33N 33°02' W 117°55'4 3.7
2017-Jan-13 18:33N 32°58' W 117°54'1313.2
2017-Jan-13 17:33N 32°46' W 117°49'1313.3
2017-Jan-13 16:33N 32°33' W 117°44'  

Dump ship's entire track history